createdAt,value
2023-01-18T00:01:04.897Z,7.82
2023-01-18T00:02:07.195Z,8.68
2023-01-18T00:03:14.130Z,8.00
2023-01-18T00:04:16.278Z,7.10
2023-01-18T00:05:19.685Z,7.20
2023-01-18T00:06:22.026Z,8.43
2023-01-18T00:07:24.326Z,8.02
2023-01-18T00:08:26.580Z,7.78
2023-01-18T00:09:28.994Z,6.70
2023-01-18T00:10:31.303Z,8.38
2023-01-18T00:11:33.623Z,7.57
2023-01-18T00:12:35.884Z,6.95
2023-01-18T00:13:38.994Z,7.57
2023-01-18T00:14:41.324Z,6.90
2023-01-18T00:15:43.523Z,6.82
2023-01-18T00:16:45.759Z,6.65
2023-01-18T00:17:51.407Z,7.97
2023-01-18T00:18:56.032Z,6.85
2023-01-18T00:19:58.345Z,8.10
2023-01-18T00:21:08.254Z,7.28
2023-01-18T00:22:10.652Z,6.20
2023-01-18T00:23:12.853Z,7.43
2023-01-18T00:24:15.177Z,6.82
2023-01-18T00:25:22.174Z,6.70
2023-01-18T00:26:25.577Z,6.53
2023-01-18T00:27:28.317Z,6.22
2023-01-18T00:28:32.266Z,6.25
2023-01-18T00:29:34.808Z,6.63
2023-01-18T00:30:37.020Z,7.10
2023-01-18T00:31:40.060Z,6.68
2023-01-18T00:32:42.560Z,6.47
2023-01-18T00:33:46.002Z,6.05
2023-01-18T00:34:50.402Z,6.53
2023-01-18T00:35:57.340Z,6.35
2023-01-18T00:36:59.642Z,6.25
2023-01-18T00:38:01.954Z,7.72
2023-01-18T00:39:04.422Z,6.80
2023-01-18T00:40:09.245Z,6.50
2023-01-18T00:41:11.458Z,6.05
2023-01-18T00:42:32.196Z,6.68
2023-01-18T00:43:40.714Z,6.15
2023-01-18T00:44:43.019Z,6.22
2023-01-18T00:45:45.348Z,6.32
2023-01-18T00:46:49.930Z,6.57
2023-01-18T00:47:52.610Z,6.90
2023-01-18T00:48:55.468Z,6.72
2023-01-18T00:49:57.636Z,6.55
2023-01-18T00:51:00.100Z,6.28
2023-01-18T00:52:02.347Z,6.07
2023-01-18T00:53:05.045Z,6.25
2023-01-18T00:54:07.247Z,6.05
2023-01-18T00:55:09.616Z,6.43
2023-01-18T00:56:15.074Z,6.32
2023-01-18T00:57:17.528Z,6.15
2023-01-18T00:58:19.946Z,6.30
2023-01-18T00:59:22.230Z,6.38
2023-01-18T01:00:27.152Z,6.70
2023-01-18T01:01:29.609Z,6.30
2023-01-18T01:02:31.936Z,6.40
2023-01-18T01:03:54.618Z,6.82
2023-01-18T01:05:26.470Z,6.22
2023-01-18T01:06:45.427Z,5.45
2023-01-18T01:07:49.591Z,5.97
2023-01-18T01:08:51.824Z,6.20
2023-01-18T01:09:54.087Z,6.47
2023-01-18T01:11:06.172Z,7.00
2023-01-18T01:12:27.287Z,6.10
2023-01-18T01:13:48.478Z,5.90
2023-01-18T01:15:09.111Z,6.38
2023-01-18T01:16:31.304Z,6.68
2023-01-18T01:17:55.365Z,5.85
2023-01-18T01:19:16.048Z,6.90
2023-01-18T01:20:37.203Z,6.57
2023-01-18T01:21:59.229Z,6.07
2023-01-18T01:23:30.553Z,6.53
2023-01-18T01:24:51.684Z,5.88
2023-01-18T01:26:10.689Z,6.07
2023-01-18T01:27:14.032Z,6.20
2023-01-18T01:28:16.522Z,6.43
2023-01-18T01:29:18.863Z,6.10
2023-01-18T01:30:21.080Z,6.43
2023-01-18T01:31:23.287Z,6.35
2023-01-18T01:32:25.571Z,5.85
2023-01-18T01:33:29.720Z,5.80
2023-01-18T01:34:32.539Z,6.30
2023-01-18T01:35:34.791Z,5.80
2023-01-18T01:36:37.095Z,5.75
2023-01-18T01:37:39.319Z,5.38
2023-01-18T01:38:41.803Z,5.70
2023-01-18T01:39:46.474Z,5.95
2023-01-18T01:41:08.364Z,5.80
2023-01-18T01:42:11.647Z,5.07
2023-01-18T01:43:14.175Z,5.50
2023-01-18T01:44:24.401Z,5.15
2023-01-18T01:45:30.588Z,5.75
2023-01-18T01:46:46.368Z,5.53
2023-01-18T01:47:48.770Z,5.68
2023-01-18T01:48:58.101Z,5.65
2023-01-18T01:50:06.349Z,5.90
2023-01-18T01:51:08.952Z,5.68
2023-01-18T01:52:15.364Z,6.32
2023-01-18T01:53:17.930Z,5.75
2023-01-18T01:54:37.278Z,5.90
2023-01-18T01:55:40.759Z,6.05
2023-01-18T01:56:45.946Z,6.10
2023-01-18T01:57:56.977Z,6.30
2023-01-18T01:59:01.234Z,6.10
2023-01-18T02:02:09.583Z,6.00
2023-01-18T02:03:18.592Z,6.80
2023-01-18T02:04:20.915Z,6.82
2023-01-18T02:05:24.052Z,6.57
2023-01-18T02:06:31.683Z,6.43
2023-01-18T02:07:34.831Z,6.63
2023-01-18T02:08:37.495Z,6.20
2023-01-18T02:09:40.693Z,6.03
2023-01-18T02:10:43.179Z,6.35
2023-01-18T02:11:45.468Z,6.00
2023-01-18T02:12:49.250Z,5.38
2023-01-18T02:13:52.188Z,5.53
2023-01-18T02:14:56.866Z,5.95
2023-01-18T02:16:17.599Z,5.70
2023-01-18T02:17:54.022Z,5.70
2023-01-18T02:19:19.837Z,6.10
2023-01-18T02:20:46.687Z,5.88
2023-01-18T02:22:04.464Z,6.05
2023-01-18T02:23:34.814Z,5.55
2023-01-18T02:24:56.867Z,5.65
2023-01-18T02:26:43.352Z,6.05
2023-01-18T02:28:23.984Z,5.22
2023-01-18T02:29:33.639Z,5.07
2023-01-18T02:30:45.860Z,5.20
2023-01-18T02:31:56.814Z,5.38
2023-01-18T02:33:10.749Z,5.53
2023-01-18T02:34:35.807Z,5.60
2023-01-18T02:35:40.705Z,4.70
2023-01-18T02:37:26.379Z,4.60
2023-01-18T02:38:39.649Z,4.60
2023-01-18T02:39:52.864Z,4.70
2023-01-18T02:41:10.793Z,5.20
2023-01-18T02:42:41.077Z,5.13
2023-01-18T02:44:03.617Z,5.25
2023-01-18T02:45:41.623Z,6.00
2023-01-18T02:46:44.827Z,5.03
2023-01-18T02:47:48.172Z,5.30
2023-01-18T02:48:51.001Z,4.65
2023-01-18T02:49:53.634Z,5.38
2023-01-18T02:50:55.810Z,5.03
2023-01-18T02:52:08.314Z,4.93
2023-01-18T02:53:14.556Z,5.45
2023-01-18T02:54:24.285Z,5.18
2023-01-18T02:55:29.491Z,5.10
2023-01-18T02:56:41.114Z,4.78
2023-01-18T02:57:43.658Z,5.57
2023-01-18T02:58:51.421Z,4.60
2023-01-18T02:59:55.439Z,4.82
2023-01-18T03:01:22.421Z,4.93
2023-01-18T03:02:29.180Z,5.03
2023-01-18T03:03:31.901Z,4.68
2023-01-18T03:04:39.535Z,4.60
2023-01-18T03:05:44.619Z,5.25
2023-01-18T03:06:51.478Z,4.90
2023-01-18T03:08:09.561Z,5.13
2023-01-18T03:09:18.301Z,4.65
2023-01-18T03:10:25.993Z,4.47
2023-01-18T03:11:52.584Z,4.80
2023-01-18T03:13:03.701Z,5.03
2023-01-18T03:14:36.375Z,5.10
2023-01-18T03:15:51.809Z,4.30
2023-01-18T03:17:19.953Z,5.00
2023-01-18T03:18:38.454Z,4.68
2023-01-18T03:20:06.824Z,4.32
2023-01-18T03:21:09.155Z,4.03
2023-01-18T03:22:11.452Z,4.93
2023-01-18T03:23:38.400Z,4.30
2023-01-18T03:24:41.550Z,3.92
2023-01-18T03:25:46.704Z,3.80
2023-01-18T03:26:53.402Z,4.32
2023-01-18T03:28:17.155Z,4.38
2023-01-18T03:29:39.536Z,4.60
2023-01-18T03:31:01.608Z,4.50
2023-01-18T03:32:35.962Z,4.20
2023-01-18T03:33:46.556Z,4.32
2023-01-18T03:34:56.842Z,4.15
2023-01-18T03:36:00.633Z,3.88
2023-01-18T03:37:08.183Z,3.70
2023-01-18T03:38:10.849Z,3.97
2023-01-18T03:39:24.486Z,4.20
2023-01-18T03:40:30.198Z,3.95
2023-01-18T03:41:37.932Z,4.00
2023-01-18T03:42:44.728Z,3.70
2023-01-18T03:43:49.955Z,3.75
2023-01-18T03:45:08.552Z,3.70
2023-01-18T03:46:14.313Z,3.97
2023-01-18T03:47:17.112Z,3.72
2023-01-18T03:48:19.709Z,3.67
2023-01-18T03:49:22.172Z,4.25
2023-01-18T03:50:32.415Z,3.88
2023-01-18T03:51:53.736Z,4.10
2023-01-18T03:52:59.490Z,3.80
2023-01-18T03:54:11.208Z,3.92
2023-01-18T03:55:26.827Z,3.83
2023-01-18T03:56:38.014Z,4.00
2023-01-18T03:57:45.592Z,4.45
2023-01-18T03:58:51.421Z,4.32
2023-01-18T03:59:54.053Z,4.60
2023-01-18T04:00:56.782Z,4.40
2023-01-18T04:01:59.075Z,4.35
2023-01-18T04:03:01.861Z,4.47
2023-01-18T04:04:04.355Z,4.50
2023-01-18T04:05:07.287Z,5.45
2023-01-18T04:06:09.705Z,4.45
2023-01-18T04:07:11.912Z,4.80
2023-01-18T04:08:14.664Z,4.43
2023-01-18T04:09:17.201Z,4.30
2023-01-18T04:10:19.501Z,4.25
2023-01-18T04:11:21.840Z,4.80
2023-01-18T04:12:24.291Z,5.18
2023-01-18T04:13:26.543Z,4.70
2023-01-18T04:14:29.058Z,4.90
2023-01-18T04:15:31.413Z,5.13
2023-01-18T04:16:33.677Z,5.25
2023-01-18T04:17:36.076Z,5.70
2023-01-18T04:18:38.467Z,6.25
2023-01-18T04:19:40.678Z,5.00
2023-01-18T04:20:43.099Z,6.13
2023-01-18T04:21:45.344Z,6.00
2023-01-18T04:22:54.528Z,6.25
2023-01-18T04:23:56.896Z,6.63
2023-01-18T04:24:59.081Z,6.90
2023-01-18T04:26:01.240Z,6.20
2023-01-18T04:27:04.207Z,7.72
2023-01-18T04:28:06.810Z,7.55
2023-01-18T04:29:09.059Z,8.30
2023-01-18T04:30:11.598Z,7.95
2023-01-18T04:31:14.045Z,7.90
2023-01-18T04:32:16.534Z,8.38
2023-01-18T04:33:20.574Z,9.05
2023-01-18T04:34:23.041Z,8.70
2023-01-18T04:35:25.476Z,9.10
2023-01-18T04:36:28.361Z,9.15
2023-01-18T04:37:33.969Z,9.80
2023-01-18T04:38:36.433Z,9.68
2023-01-18T04:39:38.731Z,12.27
2023-01-18T04:40:41.255Z,10.75
2023-01-18T04:41:44.872Z,10.75
2023-01-18T04:42:56.548Z,9.88
2023-01-18T04:43:58.898Z,10.90
2023-01-18T04:45:01.254Z,12.15
2023-01-18T04:46:03.719Z,12.27
2023-01-18T04:47:06.039Z,11.73
2023-01-18T04:48:08.412Z,11.65
2023-01-18T04:49:15.234Z,12.73
2023-01-18T04:50:17.476Z,10.90
2023-01-18T04:51:19.821Z,11.50
2023-01-18T04:52:22.069Z,11.38
2023-01-18T04:53:24.328Z,11.88
2023-01-18T04:54:28.335Z,14.45
2023-01-18T04:55:30.798Z,11.57
2023-01-18T04:56:33.059Z,10.63
2023-01-18T04:57:35.285Z,11.88
2023-01-18T04:58:38.187Z,11.05
2023-01-18T04:59:43.147Z,12.02
2023-01-18T05:00:45.579Z,11.85
2023-01-18T05:01:47.886Z,13.73
2023-01-18T05:02:50.705Z,10.18
2023-01-18T05:03:53.829Z,11.23
2023-01-18T05:04:56.322Z,11.45
2023-01-18T05:05:58.584Z,11.93
2023-01-18T05:07:02.368Z,10.60
2023-01-18T05:08:04.603Z,10.27
2023-01-18T05:09:06.834Z,11.48
2023-01-18T05:10:09.865Z,11.77
2023-01-18T05:11:14.729Z,11.15
2023-01-18T05:12:17.219Z,9.85
2023-01-18T05:13:19.571Z,10.70
2023-01-18T05:14:21.758Z,9.57
2023-01-18T05:15:24.002Z,9.85
2023-01-18T05:16:26.312Z,9.35
2023-01-18T05:17:30.292Z,11.77
2023-01-18T05:18:32.514Z,9.32
2023-01-18T05:19:34.824Z,9.73
2023-01-18T05:20:37.037Z,10.15
2023-01-18T05:21:39.570Z,10.52
2023-01-18T05:22:41.779Z,9.38
2023-01-18T05:23:44.343Z,10.70
2023-01-18T05:24:48.217Z,10.23
2023-01-18T05:25:55.037Z,10.65
2023-01-18T05:26:57.319Z,10.27
2023-01-18T05:28:00.206Z,10.02
2023-01-18T05:29:02.471Z,10.52
2023-01-18T05:30:06.891Z,9.05
2023-01-18T05:31:09.535Z,9.45
2023-01-18T05:32:11.805Z,9.50
2023-01-18T05:33:14.010Z,9.60
2023-01-18T05:34:16.430Z,10.13
2023-01-18T05:35:18.677Z,11.00
2023-01-18T05:36:20.911Z,9.77
2023-01-18T05:37:23.156Z,10.93
2023-01-18T05:38:25.454Z,10.95
2023-01-18T05:39:27.846Z,11.05
2023-01-18T05:40:30.179Z,12.23
2023-01-18T05:41:32.477Z,15.85
2023-01-18T05:42:34.708Z,12.75
2023-01-18T05:43:38.193Z,11.70
2023-01-18T05:44:40.925Z,11.90
2023-01-18T05:45:43.425Z,13.35
2023-01-18T05:46:45.677Z,11.50
2023-01-18T05:47:47.971Z,11.57
2023-01-18T05:48:50.207Z,12.95
2023-01-18T05:49:52.553Z,12.15
2023-01-18T05:50:54.938Z,12.13
2023-01-18T05:51:57.176Z,12.20
2023-01-18T05:53:00.731Z,12.57
2023-01-18T05:54:03.376Z,11.48
2023-01-18T05:55:06.330Z,11.52
2023-01-18T05:56:09.462Z,11.57
2023-01-18T05:57:11.771Z,11.35
2023-01-18T05:58:14.022Z,11.82
2023-01-18T05:59:16.321Z,12.25
2023-01-18T06:00:19.202Z,12.13
2023-01-18T06:01:21.472Z,11.13
2023-01-18T06:02:26.984Z,12.65
2023-01-18T06:03:29.280Z,11.05
2023-01-18T06:04:31.575Z,12.00
2023-01-18T06:05:35.065Z,11.50
2023-01-18T06:06:37.534Z,12.27
2023-01-18T06:07:42.384Z,13.98
2023-01-18T06:08:44.756Z,11.68
2023-01-18T06:09:49.657Z,12.00
2023-01-18T06:10:58.034Z,14.90
2023-01-18T06:12:00.262Z,13.05
2023-01-18T06:13:02.867Z,12.32
2023-01-18T06:14:05.432Z,12.02
2023-01-18T06:15:13.909Z,13.73
2023-01-18T06:16:22.032Z,12.90
2023-01-18T06:17:33.563Z,11.38
2023-01-18T06:18:38.701Z,13.07
2023-01-18T06:19:40.875Z,14.48
2023-01-18T06:20:43.639Z,12.75
2023-01-18T06:21:48.725Z,13.05
2023-01-18T06:22:50.974Z,13.38
2023-01-18T06:23:55.356Z,13.07
2023-01-18T06:24:57.583Z,13.00
2023-01-18T06:26:00.376Z,12.60
2023-01-18T06:27:05.325Z,13.18
2023-01-18T06:28:07.961Z,13.45
2023-01-18T06:29:10.160Z,13.93
2023-01-18T06:30:13.365Z,15.25
2023-01-18T06:31:16.088Z,14.95
2023-01-18T06:32:18.274Z,14.63
2023-01-18T06:33:20.900Z,14.63
2023-01-18T06:34:23.157Z,14.32
2023-01-18T06:35:25.445Z,13.40
2023-01-18T06:36:29.771Z,12.18
2023-01-18T06:37:31.995Z,16.38
2023-01-18T06:38:34.452Z,13.88
2023-01-18T06:39:36.756Z,12.88
2023-01-18T06:40:38.983Z,13.23
2023-01-18T06:41:41.194Z,12.73
2023-01-18T06:42:43.584Z,13.63
2023-01-18T06:43:45.829Z,17.45
2023-01-18T06:44:48.025Z,14.73
2023-01-18T06:45:55.401Z,12.40
2023-01-18T06:46:57.688Z,15.25
2023-01-18T06:47:59.895Z,13.18
2023-01-18T06:49:02.104Z,13.25
2023-01-18T06:50:04.719Z,12.30
2023-01-18T06:51:06.927Z,12.50
2023-01-18T06:52:09.077Z,12.32
2023-01-18T06:53:11.252Z,12.93
2023-01-18T06:54:15.641Z,13.80
2023-01-18T06:55:19.729Z,13.55
2023-01-18T06:56:22.020Z,13.98
2023-01-18T06:57:24.272Z,12.93
2023-01-18T06:58:27.157Z,15.05
2023-01-18T06:59:29.312Z,15.82
2023-01-18T07:00:31.536Z,13.55
2023-01-18T07:01:33.934Z,13.00
2023-01-18T07:02:36.514Z,12.43
2023-01-18T07:03:38.889Z,12.20
2023-01-18T07:04:44.143Z,14.93
2023-01-18T07:05:46.681Z,11.35
2023-01-18T07:06:49.162Z,12.43
2023-01-18T07:07:51.404Z,12.02
2023-01-18T07:08:53.833Z,11.25
2023-01-18T07:09:56.192Z,12.75
2023-01-18T07:10:59.519Z,16.80
2023-01-18T07:12:01.725Z,15.85
2023-01-18T07:13:03.984Z,11.48
2023-01-18T07:14:06.262Z,13.73
2023-01-18T07:15:20.823Z,11.88
2023-01-18T07:16:24.164Z,12.20
2023-01-18T07:17:26.460Z,16.33
2023-01-18T07:18:30.513Z,14.05
2023-01-18T07:19:32.805Z,11.73
2023-01-18T07:20:34.962Z,14.75
2023-01-18T07:21:37.195Z,13.25
2023-01-18T07:22:39.363Z,12.32
2023-01-18T07:23:42.951Z,12.80
2023-01-18T07:24:46.264Z,14.00
2023-01-18T07:25:48.481Z,11.32
2023-01-18T07:26:50.715Z,11.30
2023-01-18T07:27:53.168Z,12.02
2023-01-18T07:28:56.140Z,13.15
2023-01-18T07:29:58.590Z,11.45
2023-01-18T07:31:01.480Z,10.23
2023-01-18T07:32:04.037Z,10.75
2023-01-18T07:33:07.762Z,9.50
2023-01-18T07:34:10.984Z,11.10
2023-01-18T07:35:13.181Z,9.80
2023-01-18T07:36:15.448Z,11.65
2023-01-18T07:37:17.693Z,12.55
2023-01-18T07:38:20.864Z,14.98
2023-01-18T07:39:23.186Z,11.55
2023-01-18T07:40:25.404Z,10.90
2023-01-18T07:41:28.913Z,12.82
2023-01-18T07:42:32.458Z,10.98
2023-01-18T07:43:37.356Z,12.55
2023-01-18T07:44:39.620Z,11.25
2023-01-18T07:45:43.291Z,11.40
2023-01-18T07:46:45.682Z,11.63
2023-01-18T07:47:48.016Z,12.95
2023-01-18T07:48:50.205Z,11.88
2023-01-18T07:49:52.449Z,11.43
2023-01-18T07:50:56.507Z,11.55
2023-01-18T07:51:58.715Z,10.93
2023-01-18T07:53:09.168Z,10.95
2023-01-18T07:54:11.506Z,11.23
2023-01-18T07:55:13.952Z,11.63
2023-01-18T07:56:18.146Z,11.82
2023-01-18T07:57:20.477Z,11.20
2023-01-18T07:58:23.868Z,10.80
2023-01-18T07:59:27.740Z,10.07
2023-01-18T08:00:29.939Z,12.60
2023-01-18T08:01:32.350Z,9.73
2023-01-18T08:02:35.189Z,9.13
2023-01-18T08:03:37.892Z,9.90
2023-01-18T08:04:40.491Z,9.45
2023-01-18T08:05:44.048Z,10.35
2023-01-18T08:06:46.598Z,10.38
2023-01-18T08:07:49.806Z,12.23
2023-01-18T08:08:52.156Z,10.70
2023-01-18T08:09:54.436Z,12.13
2023-01-18T08:10:58.272Z,11.02
2023-01-18T08:12:01.192Z,11.85
2023-01-18T08:13:04.165Z,11.13
2023-01-18T08:14:06.396Z,10.70
2023-01-18T08:15:09.014Z,10.38
2023-01-18T08:16:12.223Z,11.90
2023-01-18T08:17:14.470Z,10.07
2023-01-18T08:18:16.696Z,9.55
2023-01-18T08:19:19.384Z,10.50
2023-01-18T08:20:22.195Z,11.15
2023-01-18T08:21:24.806Z,14.07
2023-01-18T08:22:27.411Z,10.02
2023-01-18T08:23:29.650Z,9.25
2023-01-18T08:24:31.846Z,8.95
2023-01-18T08:25:34.070Z,9.07
2023-01-18T08:26:36.285Z,11.23
2023-01-18T08:27:38.835Z,9.40
2023-01-18T08:28:41.658Z,8.82
2023-01-18T08:29:45.904Z,8.50
2023-01-18T08:30:48.854Z,9.50
2023-01-18T08:31:54.737Z,10.70
2023-01-18T08:32:59.726Z,10.02
2023-01-18T08:34:02.368Z,11.77
2023-01-18T08:35:04.767Z,10.73
2023-01-18T08:36:10.443Z,10.30
2023-01-18T08:37:12.622Z,10.55
2023-01-18T08:38:16.151Z,11.30
2023-01-18T08:39:18.388Z,10.23
2023-01-18T08:40:21.922Z,9.90
2023-01-18T08:41:28.482Z,9.82
2023-01-18T08:42:30.823Z,9.55
2023-01-18T08:43:33.288Z,9.07
2023-01-18T08:44:35.475Z,10.13
2023-01-18T08:45:38.371Z,8.82
2023-01-18T08:46:40.852Z,9.48
2023-01-18T08:47:43.182Z,9.57
2023-01-18T08:48:45.555Z,8.95
2023-01-18T08:49:47.812Z,9.27
2023-01-18T08:50:51.710Z,9.25
2023-01-18T08:51:54.091Z,9.40
2023-01-18T08:52:57.193Z,9.90
2023-01-18T08:53:59.848Z,8.25
2023-01-18T08:55:06.194Z,8.95
2023-01-18T08:56:08.972Z,10.85
2023-01-18T08:57:11.334Z,9.02
2023-01-18T08:58:13.716Z,8.82
2023-01-18T08:59:15.986Z,8.73
2023-01-18T09:00:18.590Z,9.38
2023-01-18T09:01:23.233Z,8.57
2023-01-18T09:02:26.148Z,10.00
2023-01-18T09:03:28.403Z,8.75
2023-01-18T09:04:30.538Z,9.52
2023-01-18T09:05:34.790Z,8.70
2023-01-18T09:06:37.039Z,9.18
2023-01-18T09:07:39.339Z,8.65
2023-01-18T09:08:41.618Z,8.95
2023-01-18T09:09:44.842Z,9.48
2023-01-18T09:10:46.992Z,7.88
2023-01-18T09:11:52.380Z,8.15
2023-01-18T09:12:55.584Z,9.45
2023-01-18T09:14:00.986Z,9.07
2023-01-18T09:15:04.171Z,9.40
2023-01-18T09:16:10.192Z,9.23
2023-01-18T09:17:14.193Z,9.40
2023-01-18T09:18:16.450Z,10.23
2023-01-18T09:19:18.657Z,9.55
2023-01-18T09:20:20.910Z,9.25
2023-01-18T09:21:23.648Z,9.90
2023-01-18T09:22:25.833Z,9.85
2023-01-18T09:23:27.979Z,9.80
2023-01-18T09:24:30.147Z,9.95
2023-01-18T09:25:32.427Z,10.13
2023-01-18T09:26:34.871Z,10.30
2023-01-18T09:27:37.118Z,9.68
2023-01-18T09:28:39.601Z,8.23
2023-01-18T09:29:41.994Z,8.80
2023-01-18T09:30:44.385Z,7.85
2023-01-18T09:31:46.734Z,7.40
2023-01-18T09:32:49.050Z,7.57
2023-01-18T09:33:53.522Z,6.68
2023-01-18T09:34:56.414Z,7.30
2023-01-18T09:36:02.628Z,6.97
2023-01-18T09:37:04.796Z,8.25
2023-01-18T09:38:09.820Z,7.45
2023-01-18T09:39:11.984Z,7.40
2023-01-18T09:40:17.458Z,7.43
2023-01-18T09:41:30.154Z,8.20
2023-01-18T09:42:38.948Z,9.68
2023-01-18T09:43:49.326Z,8.02
2023-01-18T09:44:58.859Z,7.80
2023-01-18T09:46:01.937Z,8.55
2023-01-18T09:47:18.269Z,7.70
2023-01-18T09:48:29.555Z,8.15
2023-01-18T09:49:43.956Z,6.93
2023-01-18T09:50:46.163Z,7.95
2023-01-18T09:52:26.197Z,9.07
2023-01-18T09:54:19.397Z,8.60
2023-01-18T09:55:48.135Z,8.63
2023-01-18T09:57:09.023Z,7.85
2023-01-18T09:58:42.613Z,7.97
2023-01-18T10:00:04.795Z,7.55
2023-01-18T10:01:16.143Z,8.50
2023-01-18T10:02:40.307Z,10.80
2023-01-18T10:03:48.187Z,9.55
2023-01-18T10:04:58.895Z,8.48
2023-01-18T10:06:10.496Z,8.10
2023-01-18T10:07:16.847Z,7.60
2023-01-18T10:08:25.596Z,8.55
2023-01-18T10:09:41.931Z,8.02
2023-01-18T10:10:55.922Z,7.82
2023-01-18T10:12:01.158Z,7.30
2023-01-18T10:13:08.391Z,7.38
2023-01-18T10:14:45.256Z,7.18
2023-01-18T10:15:48.155Z,8.15
2023-01-18T10:17:00.151Z,8.05
2023-01-18T10:18:02.437Z,8.23
2023-01-18T10:19:15.330Z,7.45
2023-01-18T10:20:23.438Z,7.40
2023-01-18T10:21:41.799Z,8.05
2023-01-18T10:22:53.727Z,8.60
2023-01-18T10:24:12.227Z,8.68
2023-01-18T10:25:24.136Z,8.70
2023-01-18T10:26:31.562Z,8.25
2023-01-18T10:28:08.042Z,8.60
2023-01-18T10:29:25.087Z,9.55
2023-01-18T10:30:51.474Z,8.02
2023-01-18T10:32:05.257Z,8.02
2023-01-18T10:33:29.007Z,7.60
2023-01-18T10:34:39.336Z,8.90
2023-01-18T10:35:47.901Z,9.05
2023-01-18T10:36:58.757Z,8.20
2023-01-18T10:38:05.907Z,8.52
2023-01-18T10:39:41.783Z,7.22
2023-01-18T10:40:49.495Z,7.43
2023-01-18T10:41:51.975Z,7.95
2023-01-18T10:42:59.956Z,8.35
2023-01-18T10:44:02.401Z,8.70
2023-01-18T10:45:12.411Z,7.22
2023-01-18T10:46:16.992Z,6.78
2023-01-18T10:47:20.608Z,8.25
2023-01-18T10:48:28.783Z,8.25
2023-01-18T10:49:42.822Z,7.45
2023-01-18T10:50:49.466Z,7.70
2023-01-18T10:51:52.203Z,8.15
2023-01-18T10:52:54.521Z,8.02
2023-01-18T10:53:57.619Z,7.85
2023-01-18T10:55:07.589Z,7.68
2023-01-18T10:56:09.889Z,7.95
2023-01-18T10:57:23.047Z,7.07
2023-01-18T10:58:32.354Z,7.32
2023-01-18T10:59:39.610Z,7.28
2023-01-18T11:00:41.920Z,6.93
2023-01-18T11:01:56.919Z,7.30
2023-01-18T11:03:01.751Z,7.65
2023-01-18T11:04:14.675Z,8.52
2023-01-18T11:05:22.868Z,7.85
2023-01-18T11:06:26.886Z,7.28
2023-01-18T11:07:29.804Z,7.30
2023-01-18T11:08:34.328Z,7.72
2023-01-18T11:09:56.282Z,7.63
2023-01-18T11:11:20.376Z,6.78
2023-01-18T11:12:43.312Z,6.70
2023-01-18T11:13:49.003Z,7.40
2023-01-18T11:14:51.594Z,6.88
2023-01-18T11:16:10.455Z,6.53
2023-01-18T11:17:12.986Z,7.40
2023-01-18T11:18:17.522Z,7.85
2023-01-18T11:19:20.100Z,7.18
2023-01-18T11:20:34.972Z,8.70
2023-01-18T11:21:42.964Z,9.50
2023-01-18T11:23:06.386Z,9.82
2023-01-18T11:24:15.408Z,7.90
2023-01-18T11:25:17.792Z,7.95
2023-01-18T11:26:23.273Z,7.20
2023-01-18T11:27:25.755Z,8.82
2023-01-18T11:28:34.683Z,7.57
2023-01-18T11:29:41.566Z,8.75
2023-01-18T11:31:06.942Z,8.82
2023-01-18T11:32:25.487Z,8.75
2023-01-18T11:33:29.602Z,7.53
2023-01-18T11:34:35.562Z,7.82
2023-01-18T11:35:37.979Z,7.80
2023-01-18T11:36:45.168Z,7.38
2023-01-18T11:37:48.796Z,9.15
2023-01-18T11:38:51.054Z,8.57
2023-01-18T11:39:53.335Z,8.77
2023-01-18T11:41:05.302Z,8.30
2023-01-18T11:42:17.129Z,8.30
2023-01-18T11:43:25.850Z,8.25
2023-01-18T11:44:34.782Z,9.65
2023-01-18T11:46:00.235Z,8.27
2023-01-18T11:47:06.263Z,7.95
2023-01-18T11:48:30.568Z,8.35
2023-01-18T11:49:57.015Z,9.18
2023-01-18T11:51:43.649Z,8.52
2023-01-18T11:52:54.095Z,9.07
2023-01-18T11:54:06.917Z,9.73
2023-01-18T11:55:23.553Z,9.15
2023-01-18T11:56:45.175Z,9.30
2023-01-18T11:57:47.437Z,10.15
2023-01-18T11:58:49.734Z,9.80
2023-01-18T11:59:51.951Z,9.32
2023-01-18T12:01:31.537Z,10.10
2023-01-18T12:03:08.905Z,10.02
2023-01-18T12:04:47.686Z,8.23
2023-01-18T12:06:06.543Z,8.20
2023-01-18T12:07:45.905Z,8.82
2023-01-18T12:08:56.674Z,8.90
2023-01-18T12:10:01.566Z,10.00
2023-01-18T12:11:27.286Z,9.40
2023-01-18T12:12:44.361Z,9.73
2023-01-18T12:14:13.504Z,9.50
2023-01-18T12:15:26.532Z,8.85
2023-01-18T12:16:44.187Z,8.45
2023-01-18T12:18:11.992Z,7.75
2023-01-18T12:19:49.749Z,7.10
2023-01-18T12:21:11.939Z,7.55
2023-01-18T12:22:31.059Z,8.63
2023-01-18T12:24:04.962Z,9.13
2023-01-18T12:26:10.609Z,8.68
2023-01-18T12:27:26.193Z,8.35
2023-01-18T12:28:38.760Z,7.63
2023-01-18T12:29:55.879Z,7.00
2023-01-18T12:31:23.902Z,6.57
2023-01-18T12:32:50.779Z,6.10
2023-01-18T12:34:02.856Z,5.50
2023-01-18T12:35:24.151Z,5.00
2023-01-18T12:37:04.195Z,4.23
2023-01-18T12:38:31.228Z,5.47
2023-01-18T12:39:51.841Z,4.60
2023-01-18T12:41:12.037Z,5.22
2023-01-18T12:42:24.781Z,5.15
2023-01-18T12:43:53.252Z,5.28
2023-01-18T12:45:10.478Z,5.25
2023-01-18T12:46:43.531Z,6.70
2023-01-18T12:48:06.454Z,6.05
2023-01-18T12:49:18.541Z,7.60
2023-01-18T12:50:27.504Z,8.40
2023-01-18T12:51:34.172Z,8.18
2023-01-18T12:52:44.786Z,6.63
2023-01-18T12:53:55.973Z,8.13
2023-01-18T12:55:03.900Z,11.25
2023-01-18T12:56:20.099Z,10.75
2023-01-18T12:57:24.241Z,9.57
2023-01-18T12:58:27.229Z,8.48
2023-01-18T12:59:38.609Z,9.57
2023-01-18T13:00:47.955Z,9.02
2023-01-18T13:01:57.505Z,6.68
2023-01-18T13:02:59.802Z,7.10
2023-01-18T13:04:08.465Z,7.35
2023-01-18T13:05:52.970Z,7.40
2023-01-18T13:07:02.180Z,6.32
2023-01-18T13:08:10.647Z,6.70
2023-01-18T13:09:18.644Z,6.72
2023-01-18T13:10:27.048Z,5.75
2023-01-18T13:11:41.999Z,6.32
2023-01-18T13:12:44.938Z,5.47
2023-01-18T13:13:52.068Z,4.28
2023-01-18T13:15:06.540Z,4.30
2023-01-18T13:16:21.585Z,4.10
2023-01-18T13:17:51.836Z,4.07
2023-01-18T13:18:56.728Z,2.90
2023-01-18T13:20:05.478Z,3.13
2023-01-18T13:21:32.315Z,3.25
2023-01-18T13:22:46.807Z,3.40
2023-01-18T13:23:49.420Z,3.25
2023-01-18T13:25:09.440Z,3.33
2023-01-18T13:26:34.593Z,3.35
2023-01-18T13:27:37.822Z,2.53
2023-01-18T13:28:40.387Z,2.88
2023-01-18T13:29:44.047Z,2.88
2023-01-18T13:30:54.894Z,3.00
2023-01-18T13:31:57.952Z,2.97
2023-01-18T13:33:11.152Z,2.90
2023-01-18T13:34:30.889Z,3.08
2023-01-18T13:35:33.847Z,2.80
2023-01-18T13:36:44.640Z,2.80
2023-01-18T13:37:56.349Z,3.33
2023-01-18T13:39:13.569Z,3.20
2023-01-18T13:40:41.162Z,2.80
2023-01-18T13:42:04.989Z,2.97
2023-01-18T13:43:36.081Z,3.25
2023-01-18T13:44:43.636Z,3.83
2023-01-18T13:46:05.630Z,2.85
2023-01-18T13:47:42.766Z,3.60
2023-01-18T13:48:56.338Z,3.03
2023-01-18T13:49:58.800Z,2.97
2023-01-18T13:51:01.100Z,2.72
2023-01-18T13:52:31.258Z,2.85
2023-01-18T13:53:50.495Z,3.65
2023-01-18T13:54:55.465Z,2.92
2023-01-18T13:56:00.344Z,3.03
2023-01-18T13:57:05.273Z,3.05
2023-01-18T13:58:26.262Z,2.97
2023-01-18T13:59:33.594Z,2.75
2023-01-18T14:00:36.547Z,3.05
2023-01-18T14:01:43.758Z,2.63
2023-01-18T14:02:51.816Z,2.67
2023-01-18T14:03:55.180Z,2.75
2023-01-18T14:05:17.942Z,2.95
2023-01-18T14:06:34.297Z,2.90
2023-01-18T14:07:41.943Z,2.60
2023-01-18T14:09:07.310Z,2.38
2023-01-18T14:10:33.394Z,2.92
2023-01-18T14:11:41.520Z,2.53
2023-01-18T14:12:55.060Z,2.35
2023-01-18T14:14:08.253Z,2.50
2023-01-18T14:15:24.023Z,2.42
2023-01-18T14:16:29.654Z,2.78
2023-01-18T14:17:33.514Z,2.53
2023-01-18T14:18:35.733Z,2.15
2023-01-18T14:19:52.198Z,2.53
2023-01-18T14:21:18.909Z,2.38
2023-01-18T14:22:26.857Z,1.88
2023-01-18T14:23:58.078Z,2.40
2023-01-18T14:25:29.634Z,2.58
2023-01-18T14:26:33.835Z,2.30
2023-01-18T14:27:41.869Z,2.47
2023-01-18T14:28:48.350Z,2.45
2023-01-18T14:30:02.597Z,2.75
2023-01-18T14:31:07.511Z,2.50
2023-01-18T14:32:18.306Z,3.28
2023-01-18T14:33:28.058Z,3.17
2023-01-18T14:34:30.189Z,2.75
2023-01-18T14:35:32.934Z,2.53
2023-01-18T14:36:36.059Z,3.05
2023-01-18T14:37:38.287Z,2.45
2023-01-18T14:38:43.795Z,2.45
2023-01-18T14:39:45.979Z,2.95
2023-01-18T14:40:52.611Z,2.78
2023-01-18T14:41:58.327Z,3.13
2023-01-18T14:43:10.123Z,2.45
2023-01-18T14:44:20.218Z,2.50
2023-01-18T14:45:24.832Z,2.55
2023-01-18T14:46:27.341Z,2.90
2023-01-18T14:47:32.794Z,3.22
2023-01-18T14:48:45.887Z,2.72
2023-01-18T14:49:48.179Z,3.28
2023-01-18T14:50:54.750Z,5.20
2023-01-18T14:51:58.793Z,4.20
2023-01-18T14:53:01.413Z,4.47
2023-01-18T14:54:05.875Z,4.00
2023-01-18T14:55:23.531Z,4.30
2023-01-18T14:56:28.100Z,4.45
2023-01-18T14:57:30.526Z,4.03
2023-01-18T14:58:41.780Z,4.40
2023-01-18T15:00:04.442Z,4.57
2023-01-18T15:01:09.037Z,3.83
2023-01-18T15:02:22.433Z,3.95